Kezdőlap
METAR-TAF:

METAR-TAF

Repülőterek :

William H. Morse State Airport

Bennington, Vermont, Amerikai Egyesült Államok

földrajzi szélesség: 42-53-24N, földrajzi hosszúság: 073-14-47W, magasság: 252 m

Jelenlegi meteorológiai megfigyelések

A jelentés 1 órával és 9 perccel ezelõtt készült, 19:54 UTC
Szélcsend
Hőmérséklet 28°C
Páratartalom 51%
Légköri nyomás 1010 hPa
Látótávolság: 16.1 km
Derült ég

METAR: KDDH 051954Z AUTO 00000KT 10SM CLR 28/17 A2983 RMK AO2 LTG DSNT SW SLP095 T02780172

Idő: 17:03 (21:03 UTC)


TAF: hiányzik

Meteorológiai megfigyelések és előrejelzések több, mint 4000 repülőtéren (METAR és TAF jelentéseket).

A térképen piros és sárga pontok jelzik az elérhető meteorológiai állomásokat.

Mozgassa az egeret a pont fölött, hogy megjelenjen az állomás neve.

Azután kattintson az időjárási megfigyelések és előrejelzések megtekintéséhez.

A térkép megváltoztatása: kattintson a fekete keresztel jelölt zöld gombra ráközelítéshez, a vonallal jelölt zöld gombra távolításhoz, vagy a zöld nyilakra a szomszédos térképek eléréséhez.


METAR-TAF: